Time;durP1;ratioP1;P1;durP2;ratioP2;P2;SDS_P1;SDS_P2;PMS_P1;PMS_P2;Temp;Humidity;BMP_temperature;BMP_pressure;BME280_temperature;BME280_humidity;BME280_pressure;Samples;Min_cycle;Max_cycle;Signal;HPM_P1;HPM_P2
2021/12/09 00:01:37;;;;;;;14.80;5.28;;;;;;;1.33;100.00;100192.63;5230299;28;20050;-67
2021/12/09 00:04:12;;;;;;;15.18;5.32;;;;;;;1.36;100.00;100197.69;5228893;28;20147;-67
2021/12/09 00:06:44;;;;;;;16.77;5.47;;;;;;;1.38;100.00;100198.38;5223673;28;20032;-67
2021/12/09 00:09:18;;;;;;;14.90;4.95;;;;;;;1.36;100.00;100195.88;5223610;28;20036;-67
2021/12/09 00:11:50;;;;;;;21.83;5.10;;;;;;;1.38;100.00;100198.38;5223574;28;20036;-67
2021/12/09 00:14:24;;;;;;;11.65;5.03;;;;;;;1.35;100.00;100194.16;5222147;28;20386;-67
2021/12/09 00:16:58;;;;;;;14.20;5.03;;;;;;;1.36;100.00;100195.03;5223436;28;20048;-67
2021/12/09 00:19:28;;;;;;;15.48;5.13;;;;;;;1.39;100.00;100194.78;5223405;28;20031;-67
2021/12/09 00:21:59;;;;;;;15.10;4.80;;;;;;;1.39;100.00;100192.13;5223267;28;20033;-67
2021/12/09 00:24:30;;;;;;;17.13;5.10;;;;;;;1.37;100.00;100180.84;5222934;28;20389;-67
2021/12/09 00:27:01;;;;;;;20.10;5.25;;;;;;;1.36;100.00;100189.75;5221569;28;20024;-68
2021/12/09 00:29:32;;;;;;;19.77;4.80;;;;;;;1.37;100.00;100186.97;5218308;28;20037;-68
2021/12/09 00:32:03;;;;;;;15.38;4.90;;;;;;;1.33;100.00;100198.75;5223011;28;20397;-68
2021/12/09 00:34:36;;;;;;;10.70;4.13;;;;;;;1.29;100.00;100192.84;5223286;28;20028;-68
2021/12/09 00:37:23;;;;;;;13.90;4.68;;;;;;;1.27;100.00;100189.50;5222895;28;20055;-68
2021/12/09 00:39:54;;;;;;;20.42;4.30;;;;;;;1.26;100.00;100192.28;5221988;28;20063;-68
2021/12/09 00:42:26;;;;;;;21.42;4.68;;;;;;;1.24;100.00;100195.03;5223340;28;20450;-68
2021/12/09 00:44:57;;;;;;;12.55;5.00;;;;;;;1.23;100.00;100193.34;5222244;28;20040;-68
2021/12/09 00:47:27;;;;;;;14.02;4.13;;;;;;;1.22;100.00;100189.03;5223037;28;20025;-70
2021/12/09 00:49:58;;;;;;;12.02;4.53;;;;;;;1.21;100.00;100195.28;5221874;28;20099;-68
2021/12/09 00:52:28;;;;;;;12.40;4.43;;;;;;;1.23;100.00;100192.53;5223296;28;20025;-69
2021/12/09 00:54:59;;;;;;;10.13;4.28;;;;;;;1.17;100.00;100191.22;5222343;28;20021;-68
2021/12/09 00:57:30;;;;;;;11.10;3.88;;;;;;;1.11;100.00;100194.34;5222895;28;20397;-68
2021/12/09 01:00:04;;;;;;;13.55;4.00;;;;;;;1.06;100.00;100191.22;5222219;28;20024;-68
2021/12/09 01:02:35;;;;;;;18.10;4.75;;;;;;;1.09;100.00;100190.13;5216550;28;20037;-68
2021/12/09 01:05:07;;;;;;;17.98;4.43;;;;;;;1.09;100.00;100179.56;5222118;28;20029;-68
2021/12/09 01:07:39;;;;;;;13.85;3.65;;;;;;;1.10;100.00;100183.88;5222619;28;20390;-68
2021/12/09 01:10:14;;;;;;;8.35;3.30;;;;;;;1.03;100.00;100184.38;5222737;28;20190;-68
2021/12/09 01:12:45;;;;;;;14.38;4.43;;;;;;;0.97;100.00;100184.88;5221841;28;20033;-68
2021/12/09 01:15:19;;;;;;;14.88;4.00;;;;;;;1.01;100.00;100191.59;5222408;28;20017;-68
2021/12/09 01:17:50;;;;;;;13.63;3.60;;;;;;;0.98;100.00;100191.81;5209732;28;20078;-68
2021/12/09 01:20:25;;;;;;;16.63;3.55;;;;;;;0.93;100.00;100198.44;5222095;28;20054;-68
2021/12/09 01:22:57;;;;;;;15.02;4.32;;;;;;;0.87;100.00;100196.28;5222252;28;20040;-68
2021/12/09 01:25:32;;;;;;;15.77;3.85;;;;;;;0.92;100.00;100183.56;5221793;28;20021;-68
2021/12/09 01:28:05;;;;;;;12.35;3.80;;;;;;;0.83;100.00;100193.03;5222306;28;20032;-68
2021/12/09 01:30:36;;;;;;;7.65;3.72;;;;;;;0.73;100.00;100192.06;5222107;28;20048;-68
2021/12/09 01:33:09;;;;;;;10.02;3.25;;;;;;;0.70;100.00;100200.22;5222197;28;20111;-68
2021/12/09 01:35:41;;;;;;;15.45;4.07;;;;;;;0.65;100.00;100197.09;5221258;28;20029;-68
2021/12/09 01:38:14;;;;;;;20.20;3.90;;;;;;;0.60;100.00;100199.25;5221979;28;20059;-68
2021/12/09 01:40:45;;;;;;;19.38;4.32;;;;;;;0.61;100.00;100203.59;5222065;28;20444;-68
2021/12/09 01:43:16;;;;;;;19.80;3.63;;;;;;;0.62;100.00;100207.91;5222118;28;20068;-68
2021/12/09 01:45:46;;;;;;;10.65;3.70;;;;;;;0.58;100.00;100201.16;5221570;28;20028;-68
2021/12/09 01:48:17;;;;;;;17.10;3.70;;;;;;;0.55;100.00;100209.31;5221719;28;20465;-68
2021/12/09 01:50:47;;;;;;;13.60;3.63;;;;;;;0.60;100.00;100210.63;5221478;28;20025;-68
2021/12/09 01:53:18;;;;;;;13.75;5.03;;;;;;;0.58;100.00;100209.09;5221714;28;20176;-68
2021/12/09 01:55:50;;;;;;;14.98;3.88;;;;;;;0.54;100.00;100213.75;5221210;28;20032;-68
2021/12/09 01:58:20;;;;;;;15.40;3.80;;;;;;;0.49;100.00;100205.34;5220556;28;20032;-68
2021/12/09 02:00:51;;;;;;;14.10;3.90;;;;;;;0.43;100.00;100206.66;5220898;28;20029;-68
2021/12/09 02:03:22;;;;;;;10.20;3.70;;;;;;;0.37;100.00;100201.84;5222016;28;20064;-68
2021/12/09 02:05:54;;;;;;;11.60;4.47;;;;;;;0.46;100.00;100202.97;5221212;28;20035;-68
2021/12/09 02:08:27;;;;;;;28.25;7.30;;;;;;;0.50;100.00;100205.25;5222073;28;20092;-68
2021/12/09 02:10:58;;;;;;;12.80;3.95;;;;;;;0.51;100.00;100201.66;5221095;28;20482;-68
2021/12/09 02:13:29;;;;;;;15.60;3.53;;;;;;;0.52;100.00;100211.25;5221601;28;20221;-68
2021/12/09 02:15:59;;;;;;;14.50;4.10;;;;;;;0.47;100.00;100209.91;5221364;28;20489;-68
2021/12/09 02:18:30;;;;;;;18.83;4.45;;;;;;;0.48;100.00;100206.31;5221770;28;20036;-68
2021/12/09 02:21:12;;;;;;;14.38;3.50;;;;;;;0.49;100.00;100202.72;5220404;28;20029;-68
2021/12/09 02:23:46;;;;;;;15.50;3.78;;;;;;;0.49;100.00;100206.19;5221495;28;20359;-68
2021/12/09 02:26:19;;;;;;;13.05;3.30;;;;;;;0.53;100.00;100201.53;5221273;28;20025;-68
2021/12/09 02:28:51;;;;;;;11.98;3.10;;;;;;;0.49;100.00;100202.72;5221184;28;20024;-68
2021/12/09 02:31:24;;;;;;;12.90;2.75;;;;;;;0.59;100.00;100203.69;5210257;28;20026;-68
2021/12/09 02:33:55;;;;;;;14.32;3.33;;;;;;;0.53;100.00;100198.88;5219726;28;20048;-68
2021/12/09 02:36:26;;;;;;;17.98;4.43;;;;;;;0.62;100.00;100206.09;5220920;28;20032;-68
2021/12/09 02:38:57;;;;;;;13.90;3.72;;;;;;;0.61;100.00;100204.41;5221188;28;20154;-68
2021/12/09 02:41:28;;;;;;;14.23;3.47;;;;;;;0.65;100.00;100207.66;5221223;28;20025;-68
2021/12/09 02:44:03;;;;;;;6.90;3.00;;;;;;;0.67;100.00;100205.75;5213103;28;20030;-68
2021/12/09 02:46:38;;;;;;;15.60;3.73;;;;;;;0.64;100.00;100208.59;5215652;28;20128;-68
2021/12/09 02:49:13;;;;;;;12.05;3.45;;;;;;;0.64;100.00;100209.44;5221083;28;20264;-68
2021/12/09 02:51:45;;;;;;;9.32;3.00;;;;;;;0.67;100.00;100211.03;5221246;28;20025;-68
2021/12/09 02:54:17;;;;;;;23.77;3.78;;;;;;;0.67;100.00;100208.38;5220568;28;20067;-68
2021/12/09 02:56:52;;;;;;;11.98;3.15;;;;;;;0.67;100.00;100216.31;5220565;28;20021;-68
2021/12/09 02:59:22;;;;;;;18.20;3.77;;;;;;;0.71;100.00;100212.47;5220855;28;20086;-68
2021/12/09 03:01:57;;;;;;;8.07;2.55;;;;;;;0.75;100.00;100221.81;5230767;28;20012;-68
2021/12/09 03:04:47;;;;;;;7.70;2.83;;;;;;;0.76;100.00;100210.31;5227088;28;20028;-68
2021/12/09 03:07:29;;;;;;;7.93;2.78;;;;;;;0.73;100.00;100218.47;5224903;28;20028;-68
2021/12/09 03:10:20;;;;;;;11.05;2.90;;;;;;;0.71;100.00;100208.03;5225340;28;20032;-68
2021/12/09 03:12:55;;;;;;;10.00;3.28;;;;;;;0.76;100.00;100208.50;5224825;28;20027;-68
2021/12/09 03:15:33;;;;;;;12.70;2.83;;;;;;;0.81;100.00;100225.81;5224486;28;20029;-68
2021/12/09 03:18:04;;;;;;;17.80;3.00;;;;;;;0.84;100.00;100218.47;5224984;28;20087;-68
2021/12/09 03:20:35;;;;;;;11.18;2.55;;;;;;;0.85;100.00;100216.66;5225116;28;20040;-68
2021/12/09 03:23:05;;;;;;;8.55;3.10;;;;;;;0.86;100.00;100221.84;5223995;28;20497;-68
2021/12/09 03:25:36;;;;;;;8.15;2.30;;;;;;;0.80;100.00;100224.09;5224153;28;20028;-68
2021/12/09 03:28:06;;;;;;;16.05;3.08;;;;;;;0.79;100.00;100215.34;5224483;28;20108;-68
2021/12/09 03:30:37;;;;;;;18.15;2.80;;;;;;;0.82;100.00;100235.41;5224651;28;20098;-68
2021/12/09 03:33:07;;;;;;;17.77;2.75;;;;;;;0.78;100.00;100233.00;5224855;28;20056;-68
2021/12/09 03:35:38;;;;;;;10.13;2.40;;;;;;;0.75;100.00;100221.81;5224136;28;20108;-68
2021/12/09 03:38:08;;;;;;;9.68;2.55;;;;;;;0.71;100.00;100230.97;5224546;28;20100;-68
2021/12/09 03:40:39;;;;;;;8.77;2.80;;;;;;;0.70;100.00;100235.41;5224080;28;20385;-68
2021/12/09 03:43:09;;;;;;;11.45;2.60;;;;;;;0.69;100.00;100228.41;5224354;28;20036;-68
2021/12/09 03:45:40;;;;;;;8.10;3.35;;;;;;;0.68;100.00;100232.03;5223916;28;20103;-67
2021/12/09 03:48:10;;;;;;;11.52;2.90;;;;;;;0.65;100.00;100234.03;5224513;28;20099;-68
2021/12/09 03:50:43;;;;;;;18.08;2.90;;;;;;;0.64;100.00;100229.72;5224241;28;20090;-68
2021/12/09 03:53:13;;;;;;;12.65;2.80;;;;;;;0.62;100.00;100236.94;5223664;28;20056;-68
2021/12/09 03:55:44;;;;;;;10.88;2.53;;;;;;;0.60;100.00;100239.66;5223830;28;20442;-68
2021/12/09 03:58:15;;;;;;;8.68;2.60;;;;;;;0.52;100.00;100237.63;5224020;28;20021;-68
2021/12/09 04:00:47;;;;;;;7.45;3.38;;;;;;;0.50;100.00;100243.97;5224003;28;20511;-68
2021/12/09 04:03:18;;;;;;;16.00;3.13;;;;;;;0.49;100.00;100244.94;5224444;28;20404;-68
2021/12/09 04:05:50;;;;;;;9.90;3.67;;;;;;;0.44;100.00;100247.09;5223260;28;20543;-68
2021/12/09 04:08:21;;;;;;;12.93;2.58;;;;;;;0.50;100.00;100252.75;5224412;28;20043;-68
2021/12/09 04:10:52;;;;;;;14.05;2.78;;;;;;;0.55;100.00;100251.53;5224006;28;20495;-68
2021/12/09 04:13:22;;;;;;;16.35;3.45;;;;;;;0.52;100.00;100244.72;5216428;28;20134;-68
2021/12/09 04:15:53;;;;;;;12.18;2.83;;;;;;;0.51;100.00;100254.44;5220757;28;20017;-68
2021/12/09 04:18:23;;;;;;;12.27;3.08;;;;;;;0.52;100.00;100248.19;5223810;28;20075;-68
2021/12/09 04:20:54;;;;;;;10.93;2.90;;;;;;;0.56;100.00;100256.72;5224011;28;20028;-68
2021/12/09 04:23:25;;;;;;;9.60;2.65;;;;;;;0.52;100.00;100255.28;5224137;28;20021;-68
2021/12/09 04:25:56;;;;;;;10.52;2.53;;;;;;;0.46;100.00;100255.75;5223081;28;20025;-68
2021/12/09 04:28:27;;;;;;;7.95;2.67;;;;;;;0.50;100.00;100247.47;5223330;28;20012;-68
2021/12/09 04:30:57;;;;;;;17.00;3.17;;;;;;;0.51;100.00;100246.50;5223912;28;20020;-68
2021/12/09 04:33:29;;;;;;;14.35;3.50;;;;;;;0.49;100.00;100251.06;5223815;28;20028;-68
2021/12/09 04:36:00;;;;;;;9.88;2.60;;;;;;;0.57;100.00;100247.84;5223513;28;20025;-68
2021/12/09 04:38:31;;;;;;;11.82;2.97;;;;;;;0.57;100.00;100250.47;5223680;28;20538;-68
2021/12/09 04:41:02;;;;;;;24.98;4.15;;;;;;;0.51;100.00;100248.31;5222942;28;20031;-68
2021/12/09 04:43:35;;;;;;;18.75;3.97;;;;;;;0.46;100.00;100253.09;5223172;28;20036;-68
2021/12/09 04:46:06;;;;;;;8.88;2.83;;;;;;;0.45;100.00;100259.31;5223243;28;20035;-68
2021/12/09 04:48:37;;;;;;;17.67;3.50;;;;;;;0.45;100.00;100254.91;5223249;28;20013;-68
2021/12/09 04:51:08;;;;;;;22.00;3.45;;;;;;;0.57;100.00;100262.84;5223248;28;20032;-68
2021/12/09 04:53:38;;;;;;;9.98;5.03;;;;;;;0.63;100.00;100260.56;5223106;28;20055;-68
2021/12/09 04:56:09;;;;;;;17.65;3.58;;;;;;;0.59;100.00;100261.75;5222497;28;20068;-68
2021/12/09 04:58:40;;;;;;;19.63;2.95;;;;;;;0.51;100.00;100262.34;5223192;28;20028;-68
2021/12/09 05:01:11;;;;;;;18.80;4.43;;;;;;;0.47;100.00;100262.69;5226875;28;20404;-68
2021/12/09 05:03:45;;;;;;;13.73;3.80;;;;;;;0.47;100.00;100263.53;5232299;28;20021;-68
2021/12/09 05:06:17;;;;;;;19.38;3.67;;;;;;;0.43;100.00;100264.72;5222108;28;20126;-68
2021/12/09 05:08:48;;;;;;;11.32;3.30;;;;;;;0.52;100.00;100260.56;5222713;28;20032;-68
2021/12/09 05:11:49;;;;;;;11.57;4.00;;;;;;;0.51;100.00;100259.72;5222581;28;20021;-68
2021/12/09 05:14:14;;;;;;;11.13;3.53;;;;;;;0.42;100.00;100264.84;5222188;28;20377;-68
2021/12/09 05:16:45;;;;;;;14.70;3.53;;;;;;;0.36;100.00;100263.50;5222496;28;20453;-68
2021/12/09 05:19:16;;;;;;;24.27;3.67;;;;;;;0.30;100.00;100263.94;5222568;28;20028;-68
2021/12/09 05:21:47;;;;;;;15.32;3.35;;;;;;;0.28;100.00;100267.66;5223009;28;20040;-68
2021/12/09 05:24:18;;;;;;;16.45;3.13;;;;;;;0.26;100.00;100270.44;5222035;28;20027;-68
2021/12/09 05:26:52;;;;;;;15.23;4.03;;;;;;;0.24;100.00;100275.81;5221482;28;20441;-68
2021/12/09 05:29:28;;;;;;;12.00;3.85;;;;;;;0.25;100.00;100271.38;5222558;28;20496;-68
2021/12/09 05:32:08;;;;;;;17.58;3.92;;;;;;;0.27;100.00;100269.47;5222170;28;20116;-68
2021/12/09 05:34:47;;;;;;;18.15;4.05;;;;;;;0.43;100.00;100279.72;5222080;28;20017;-68
2021/12/09 05:37:21;;;;;;;14.60;4.18;;;;;;;0.44;100.00;100290.16;5221971;28;20063;-68
2021/12/09 05:39:55;;;;;;;16.58;3.55;;;;;;;0.50;100.00;100286.19;5222307;28;20099;-68
2021/12/09 05:42:26;;;;;;;15.82;4.45;;;;;;;0.48;100.00;100288.97;5222228;28;20070;-68
2021/12/09 05:44:57;;;;;;;16.23;3.88;;;;;;;0.45;100.00;100286.56;5221707;28;20036;-68
2021/12/09 05:47:29;;;;;;;11.35;4.50;;;;;;;0.49;100.00;100287.16;5222219;28;20020;-68
2021/12/09 05:50:00;;;;;;;21.77;4.88;;;;;;;0.54;100.00;100292.09;5220711;28;20033;-68
2021/12/09 05:52:31;;;;;;;9.50;4.25;;;;;;;0.52;100.00;100293.06;5221483;28;20039;-68
2021/12/09 05:55:01;;;;;;;14.48;4.28;;;;;;;0.58;100.00;100288.28;5221049;28;20117;-68
2021/12/09 05:57:32;;;;;;;14.05;4.55;;;;;;;0.61;100.00;100291.53;5221832;28;20025;-68
2021/12/09 06:00:05;;;;;;;12.85;3.83;;;;;;;0.68;100.00;100291.91;5220017;28;20029;-68
2021/12/09 06:02:36;;;;;;;16.23;4.35;;;;;;;0.74;100.00;100294.06;5210157;28;20057;-68
2021/12/09 06:05:07;;;;;;;13.85;4.28;;;;;;;0.79;100.00;100291.91;5218822;28;20603;-68
2021/12/09 06:07:37;;;;;;;16.55;4.65;;;;;;;0.87;100.00;100299.28;5219567;28;20028;-68
2021/12/09 06:10:09;;;;;;;13.63;4.07;;;;;;;0.89;100.00;100298.19;5219468;28;20182;-68
2021/12/09 06:12:39;;;;;;;17.00;4.38;;;;;;;0.95;100.00;100302.16;5218646;28;20028;-69
2021/12/09 06:15:10;;;;;;;13.73;4.25;;;;;;;0.98;100.00;100300.13;5219344;28;20408;-69
2021/12/09 06:17:40;;;;;;;19.67;4.63;;;;;;;1.05;100.00;100297.84;5219601;28;20309;-68
2021/12/09 06:20:11;;;;;;;15.82;4.60;;;;;;;1.06;100.00;100301.34;5219418;28;20032;-69
2021/12/09 06:22:41;;;;;;;18.65;4.22;;;;;;;1.06;100.00;100299.53;5204922;28;20424;-69
2021/12/09 06:25:17;;;;;;;15.98;5.20;;;;;;;1.06;100.00;100304.81;5200426;28;20027;-69
2021/12/09 06:27:49;;;;;;;11.65;4.55;;;;;;;1.10;100.00;100300.97;5219807;28;20428;-69
2021/12/09 06:30:20;;;;;;;10.80;4.68;;;;;;;1.21;100.00;100301.00;5219276;28;20028;-69
2021/12/09 06:32:51;;;;;;;12.68;3.63;;;;;;;1.28;100.00;100298.69;5219403;28;20271;-69
2021/12/09 06:35:22;;;;;;;16.02;4.22;;;;;;;1.26;100.00;100300.63;5218989;28;20465;-69
2021/12/09 06:37:53;;;;;;;22.00;5.20;;;;;;;1.31;100.00;100292.34;5218149;28;20583;-68
2021/12/09 06:40:24;;;;;;;16.40;4.57;;;;;;;1.33;100.00;100298.34;5211916;28;20522;-68
2021/12/09 06:42:56;;;;;;;17.95;4.15;;;;;;;1.33;100.00;100298.34;5211141;28;20257;-68
2021/12/09 06:45:27;;;;;;;17.52;4.13;;;;;;;1.31;100.00;100298.47;5218566;28;20024;-69
2021/12/09 06:47:58;;;;;;;16.00;4.07;;;;;;;1.35;100.00;100304.34;5216639;28;20021;-70
2021/12/09 06:50:28;;;;;;;19.90;3.72;;;;;;;1.36;100.00;100291.03;5210600;28;20120;-69
2021/12/09 06:52:59;;;;;;;13.95;4.28;;;;;;;1.37;100.00;100291.84;5198816;28;20032;-69
2021/12/09 06:55:30;;;;;;;10.07;3.70;;;;;;;1.42;100.00;100295.81;5214158;28;20087;-71
2021/12/09 06:58:00;;;;;;;11.88;3.47;;;;;;;1.50;100.00;100300.47;5207152;28;20369;-68
2021/12/09 07:00:32;;;;;;;14.15;3.75;;;;;;;1.53;100.00;100295.81;5198802;28;20423;-68
2021/12/09 07:03:03;;;;;;;10.65;3.67;;;;;;;1.53;100.00;100293.16;5205100;28;20032;-68
2021/12/09 07:05:35;;;;;;;12.45;4.00;;;;;;;1.48;100.00;100294.50;5205724;28;20032;-68
2021/12/09 07:08:06;;;;;;;10.88;3.60;;;;;;;1.41;100.00;100290.66;5213408;28;20021;-68
2021/12/09 07:10:36;;;;;;;12.88;3.45;;;;;;;1.35;100.00;100294.59;5209693;28;20323;-68
2021/12/09 07:13:07;;;;;;;17.25;4.25;;;;;;;1.34;100.00;100297.38;5208240;28;20076;-69
2021/12/09 07:15:38;;;;;;;15.80;3.30;;;;;;;1.32;100.00;100294.03;5216627;28;20013;-68
2021/12/09 07:18:08;;;;;;;9.35;3.47;;;;;;;1.36;100.00;100298.13;5199719;28;20028;-68
2021/12/09 07:20:39;;;;;;;11.57;3.30;;;;;;;1.42;100.00;100294.97;5211653;28;20017;-68
2021/12/09 07:23:09;;;;;;;14.32;3.72;;;;;;;1.49;100.00;100302.28;5206784;28;20115;-68
2021/12/09 07:25:40;;;;;;;9.13;3.45;;;;;;;1.51;100.00;100303.03;5206425;28;20499;-68
2021/12/09 07:28:10;;;;;;;9.15;3.28;;;;;;;1.58;100.00;100308.66;5200985;28;20624;-67
2021/12/09 07:30:41;;;;;;;12.27;3.58;;;;;;;1.61;100.00;100310.19;5208355;28;20021;-67
2021/12/09 07:33:12;;;;;;;12.48;3.30;;;;;;;1.64;100.00;100305.53;5207105;28;20096;-67
2021/12/09 07:35:43;;;;;;;21.20;4.03;;;;;;;1.68;100.00;100304.31;5209575;28;20053;-67
2021/12/09 07:38:14;;;;;;;9.75;3.22;;;;;;;1.71;100.00;100313.81;5204904;28;20013;-68
2021/12/09 07:40:45;;;;;;;7.68;3.25;;;;;;;1.75;100.00;100315.25;5199173;28;20053;-67
2021/12/09 07:43:15;;;;;;;6.07;3.20;;;;;;;1.78;100.00;100320.28;5210565;28;20147;-68
2021/12/09 07:45:46;;;;;;;10.27;4.40;;;;;;;1.86;100.00;100317.03;5212199;28;20060;-68
2021/12/09 07:48:16;;;;;;;16.20;3.50;;;;;;;1.90;100.00;100329.03;5215108;28;20017;-67
2021/12/09 07:50:47;;;;;;;13.63;3.13;;;;;;;1.93;100.00;100320.88;5211470;28;20025;-68
2021/12/09 07:53:18;;;;;;;9.77;3.63;;;;;;;1.97;100.00;100327.59;5213412;28;20028;-68
2021/12/09 07:55:51;;;;;;;10.73;3.47;;;;;;;2.04;100.00;100328.78;5217078;28;20065;-68
2021/12/09 07:58:22;;;;;;;9.27;3.17;;;;;;;2.08;100.00;100336.34;5208988;28;20057;-69
2021/12/09 08:00:52;;;;;;;7.63;3.60;;;;;;;2.14;100.00;100328.88;5208969;28;20468;-68
2021/12/09 08:03:23;;;;;;;20.20;3.65;;;;;;;2.18;100.00;100325.84;5201200;28;20071;-69
2021/12/09 08:05:53;;;;;;;16.90;4.18;;;;;;;2.23;100.00;100336.91;5209513;28;20025;-68
2021/12/09 08:08:24;;;;;;;16.50;3.50;;;;;;;2.25;100.00;100327.03;5208557;28;20544;-69
2021/12/09 08:10:54;;;;;;;18.45;4.30;;;;;;;2.27;100.00;100325.09;5217106;28;20016;-68
2021/12/09 08:13:25;;;;;;;20.05;4.65;;;;;;;2.34;100.00;100330.72;5204153;28;20025;-68
2021/12/09 08:15:55;;;;;;;16.60;3.58;;;;;;;2.41;100.00;100337.22;5216619;28;20325;-67
2021/12/09 08:18:29;;;;;;;18.42;3.35;;;;;;;2.50;100.00;100325.00;5215071;28;20083;-69
2021/12/09 08:21:02;;;;;;;10.50;3.50;;;;;;;2.57;100.00;100334.97;5209530;28;20029;-67
2021/12/09 08:23:33;;;;;;;11.70;3.67;;;;;;;2.59;100.00;100340.97;5213249;28;20023;-68
2021/12/09 08:26:03;;;;;;;13.73;3.42;;;;;;;2.61;100.00;100343.50;5210926;28;20021;-69
2021/12/09 08:28:33;;;;;;;13.82;4.20;;;;;;;2.65;100.00;100344.91;5208989;28;20025;-68
2021/12/09 08:31:04;;;;;;;20.48;3.75;;;;;;;2.69;100.00;100353.44;5218313;28;20508;-68
2021/12/09 08:33:35;;;;;;;22.10;4.97;;;;;;;2.69;100.00;100354.28;5213611;28;20583;-68
2021/12/09 08:36:05;;;;;;;11.95;4.18;;;;;;;2.74;100.00;100354.75;5204339;28;20329;-68
2021/12/09 08:38:36;;;;;;;17.90;4.68;;;;;;;2.73;100.00;100355.72;5210566;28;20277;-68
2021/12/09 08:41:07;;;;;;;13.32;4.43;;;;;;;2.77;100.00;100361.63;5208318;28;20032;-68
2021/12/09 08:43:38;;;;;;;18.63;6.50;;;;;;;2.78;100.00;100361.47;5217162;28;20024;-68
2021/12/09 08:46:08;;;;;;;11.95;4.82;;;;;;;2.80;100.00;100362.19;5214459;28;20062;-68
2021/12/09 08:48:39;;;;;;;13.05;4.90;;;;;;;2.82;100.00;100362.06;5218826;28;20017;-68
2021/12/09 08:51:10;;;;;;;13.80;4.30;;;;;;;2.84;100.00;100357.47;5216280;28;20036;-69
2021/12/09 08:53:40;;;;;;;10.95;4.88;;;;;;;2.86;100.00;100368.78;5207653;28;20052;-68
2021/12/09 08:56:11;;;;;;;14.85;5.45;;;;;;;2.86;100.00;100379.38;5214517;28;20100;-68
2021/12/09 08:58:41;;;;;;;16.80;5.40;;;;;;;2.84;100.00;100370.72;5216048;28;20032;-68
2021/12/09 09:01:15;;;;;;;14.43;5.15;;;;;;;2.84;100.00;100371.56;5208768;28;20028;-68
2021/12/09 09:03:45;;;;;;;12.13;5.63;;;;;;;2.83;100.00;100372.53;5208508;28;20056;-69
2021/12/09 09:06:16;;;;;;;16.65;5.38;;;;;;;2.82;100.00;100375.31;5218319;28;20497;-69
2021/12/09 09:08:50;;;;;;;15.80;5.55;;;;;;;2.80;100.00;100369.28;5214069;28;20039;-69
2021/12/09 09:11:20;;;;;;;12.02;5.78;;;;;;;2.79;100.00;100373.75;5203107;28;20017;-68
2021/12/09 09:13:51;;;;;;;17.05;5.93;;;;;;;2.80;100.00;100377.22;5207216;28;20017;-68
2021/12/09 09:16:22;;;;;;;12.48;5.85;;;;;;;2.83;100.00;100369.88;5215093;28;20473;-69
2021/12/09 09:18:57;;;;;;;19.17;6.13;;;;;;;2.84;100.00;100376.03;5208528;28;20024;-69
2021/12/09 09:21:28;;;;;;;19.60;6.57;;;;;;;2.83;100.00;100371.69;5214776;28;20111;-68
2021/12/09 09:23:59;;;;;;;18.63;6.25;;;;;;;2.85;100.00;100375.88;5211763;28;20033;-69
2021/12/09 09:26:31;;;;;;;19.25;6.65;;;;;;;2.88;100.00;100374.78;5209791;28;20031;-69
2021/12/09 09:29:03;;;;;;;20.98;6.55;;;;;;;2.85;100.00;100378.53;5206862;28;20052;-68
2021/12/09 09:31:34;;;;;;;20.95;6.78;;;;;;;2.95;100.00;100372.47;5207490;28;20191;-68
2021/12/09 09:34:05;;;;;;;14.98;6.38;;;;;;;2.95;100.00;100373.31;5204615;28;20033;-68
2021/12/09 09:36:39;;;;;;;16.85;6.55;;;;;;;2.96;100.00;100385.59;5217022;28;20032;-68
2021/12/09 09:39:19;;;;;;;10.32;5.82;;;;;;;2.96;100.00;100390.91;5204670;28;20029;-69
2021/12/09 09:41:59;;;;;;;16.42;5.57;;;;;;;2.98;100.00;100383.66;5201590;28;20016;-70
2021/12/09 09:44:44;;;;;;;14.45;6.03;;;;;;;3.01;100.00;100385.19;5216561;28;20025;-70
2021/12/09 09:47:16;;;;;;;14.02;6.05;;;;;;;3.07;100.00;100382.06;5207231;28;20017;-69
2021/12/09 09:49:47;;;;;;;13.02;6.60;;;;;;;3.08;100.00;100394.31;5213648;28;20025;-69
2021/12/09 09:52:17;;;;;;;12.57;5.97;;;;;;;3.14;100.00;100385.84;5217303;28;20025;-70
2021/12/09 09:54:49;;;;;;;13.73;6.75;;;;;;;3.11;100.00;100388.75;5207070;28;20020;-69
2021/12/09 09:57:19;;;;;;;20.08;6.50;;;;;;;3.18;100.00;100395.22;5214072;28;20517;-70
2021/12/09 09:59:50;;;;;;;13.70;6.03;;;;;;;3.21;100.00;100388.81;5206156;28;20095;-67
2021/12/09 10:02:20;;;;;;;14.07;5.60;;;;;;;3.19;100.00;100398.72;5202306;28;20021;-69
2021/12/09 10:05:00;;;;;;;9.38;4.90;;;;;;;3.23;100.00;100400.16;5209560;28;20029;-69
2021/12/09 10:07:33;;;;;;;13.82;5.85;;;;;;;3.27;100.00;100398.91;5210554;28;20013;-69
2021/12/09 10:10:05;;;;;;;9.90;4.68;;;;;;;3.22;100.00;100383.41;5209424;28;20025;-69
2021/12/09 10:12:55;;;;;;;7.68;4.40;;;;;;;3.27;100.00;100391.81;5214879;28;20044;-70
2021/12/09 10:15:35;;;;;;;8.98;4.28;;;;;;;3.28;100.00;100387.34;5204354;28;20052;-70
2021/12/09 10:18:06;;;;;;;7.03;3.92;;;;;;;3.21;100.00;100389.66;5207831;28;20065;-70
2021/12/09 10:20:42;;;;;;;15.32;5.00;;;;;;;3.18;100.00;100387.28;5211335;28;20029;-69
2021/12/09 10:23:26;;;;;;;8.02;3.90;;;;;;;3.24;100.00;100377.97;5205944;28;20095;-69
2021/12/09 10:26:19;;;;;;;8.48;4.25;;;;;;;3.27;100.00;100372.41;5202365;28;20051;-67
2021/12/09 10:28:52;;;;;;;10.20;4.45;;;;;;;3.44;100.00;100368.31;5204979;28;20021;-69
2021/12/09 10:31:27;;;;;;;10.30;4.47;;;;;;;3.50;100.00;100373.91;5213173;28;20153;-70
2021/12/09 10:34:11;;;;;;;8.07;4.30;;;;;;;3.67;100.00;100374.28;5204835;28;20093;-69
2021/12/09 10:36:56;;;;;;;8.23;3.85;;;;;;;3.59;100.00;100366.97;5203437;28;20024;-67
2021/12/09 10:39:31;;;;;;;12.25;4.22;;;;;;;3.66;100.00;100356.66;5202094;28;20032;-69
2021/12/09 10:42:07;;;;;;;9.25;4.95;;;;;;;3.59;100.00;100364.31;5216993;28;20028;-68
2021/12/09 10:44:45;;;;;;;9.13;4.60;;;;;;;3.71;100.00;100360.59;5210480;28;20110;-69
2021/12/09 10:47:24;;;;;;;8.57;4.70;;;;;;;3.68;100.00;100366.19;5203646;28;20028;-69
2021/12/09 10:50:08;;;;;;;8.48;4.95;;;;;;;3.57;100.00;100364.47;5207108;28;20025;-70
2021/12/09 10:52:44;;;;;;;9.38;4.20;;;;;;;3.55;100.00;100365.56;5204152;28;20025;-70
2021/12/09 10:55:23;;;;;;;8.20;4.60;;;;;;;3.51;100.00;100370.28;5200939;28;20489;-70
2021/12/09 10:57:59;;;;;;;12.80;5.07;;;;;;;3.49;100.00;100374.06;5205425;28;20358;-70
2021/12/09 11:00:36;;;;;;;10.38;4.80;;;;;;;3.45;100.00;100380.59;5207409;28;20104;-70
2021/12/09 11:03:15;;;;;;;13.52;5.50;;;;;;;3.44;100.00;100373.59;5202450;28;20429;-70
2021/12/09 11:05:51;;;;;;;15.25;5.95;;;;;;;3.44;100.00;100374.44;5205312;28;20028;-70
2021/12/09 11:08:27;;;;;;;18.83;5.65;;;;;;;3.47;100.00;100381.31;5203683;28;20017;-70
2021/12/09 11:10:59;;;;;;;;;;;;;;;3.60;100.00;100385.41;5217373;28;20038;-70
2021/12/09 11:13:43;;;;;;;14.02;6.00;;;;;;;3.58;100.00;100383.88;5208405;28;19909;-70
2021/12/09 11:16:23;;;;;;;14.27;6.28;;;;;;;3.63;100.00;100374.53;5205213;28;20025;-70
2021/12/09 11:19:05;;;;;;;18.65;6.25;;;;;;;3.72;100.00;100372.91;5215882;28;20025;-70
2021/12/09 11:21:42;;;;;;;12.38;5.68;;;;;;;3.71;100.00;100373.84;5207958;28;20155;-70
2021/12/09 11:24:16;;;;;;;13.02;5.90;;;;;;;3.86;100.00;100369.84;5212991;28;20017;-69
2021/12/09 11:26:57;;;;;;;15.07;6.60;;;;;;;3.92;100.00;100363.19;5213763;28;20239;-69
2021/12/09 11:29:32;;;;;;;16.10;6.10;;;;;;;3.96;100.00;100363.75;5206931;28;20295;-69
2021/12/09 11:32:17;;;;;;;16.73;6.35;;;;;;;4.07;100.00;100361.00;5209223;28;20036;-69
2021/12/09 11:35:00;;;;;;;15.60;7.15;;;;;;;4.11;100.00;100357.91;5207715;28;20099;-68
2021/12/09 11:37:38;;;;;;;13.55;6.38;;;;;;;4.28;100.00;100359.09;5204496;28;20563;-68
2021/12/09 11:40:34;;;;;;;17.10;6.68;;;;;;;4.30;100.00;100346.50;5211900;28;20335;-68
2021/12/09 11:43:07;;;;;;;28.63;12.10;;;;;;;4.37;100.00;100352.94;5208143;28;20030;-68
2021/12/09 11:45:44;;;;;;;16.50;6.60;;;;;;;4.44;100.00;100357.69;5205495;28;20029;-68